Time;durP1;ratioP1;P1;durP2;ratioP2;P2;SDS_P1;SDS_P2;PMS_P1;PMS_P2;Temp;Humidity;BMP_temperature;BMP_pressure;BME280_temperature;BME280_humidity;BME280_pressure;Samples;Min_cycle;Max_cycle;Signal;HPM_P1;HPM_P2
2022/06/14 00:01:56;;;;;;;6.88;1.75;;;14.80;99.90;;;;;;5032107;28;20164;-78
2022/06/14 00:04:22;;;;;;;5.72;1.80;;;14.70;99.90;;;;;;5032279;28;20286;-78
2022/06/14 00:06:47;;;;;;;12.85;1.27;;;14.70;99.90;;;;;;5032118;28;20164;-78
2022/06/14 00:09:13;;;;;;;13.35;1.27;;;14.70;99.90;;;;;;5032305;28;20196;-80
2022/06/14 00:11:40;;;;;;;2.33;1.38;;;14.70;99.90;;;;;;5032455;28;20164;-79
2022/06/14 00:14:09;;;;;;;3.20;1.35;;;14.90;99.90;;;;;;5032313;28;20207;-79
2022/06/14 00:16:36;;;;;;;12.07;1.92;;;14.70;99.90;;;;;;5032421;28;20180;-79
2022/06/14 00:19:04;;;;;;;8.35;1.40;;;14.70;99.90;;;;;;5031924;28;20192;-80
2022/06/14 00:21:31;;;;;;;7.82;1.42;;;14.80;99.90;;;;;;5032090;28;20188;-80
2022/06/14 00:23:56;;;;;;;9.55;1.23;;;14.70;99.90;;;;;;5032179;28;20204;-79
2022/06/14 00:26:22;;;;;;;5.18;1.45;;;14.70;99.90;;;;;;5032260;28;20229;-79
2022/06/14 00:28:48;;;;;;;3.65;1.30;;;14.70;99.90;;;;;;5032950;28;20174;-80
2022/06/14 00:31:20;;;;;;;4.32;1.02;;;14.70;99.90;;;;;;5035646;28;20160;-79
2022/06/14 00:33:46;;;;;;;6.43;1.42;;;14.70;99.90;;;;;;5035472;28;20172;-81
2022/06/14 00:36:33;;;;;;;9.38;1.60;;;14.60;99.90;;;;;;5033955;28;20163;-81
2022/06/14 00:39:02;;;;;;;3.97;1.58;;;14.70;99.90;;;;;;5035531;28;20189;-81
2022/06/14 00:41:41;;;;;;;4.72;1.30;;;14.60;99.90;;;;;;5035406;28;20199;-81
2022/06/14 00:44:13;;;;;;;5.03;1.83;;;14.60;99.90;;;;;;5035123;28;20269;-79
2022/06/14 00:46:51;;;;;;;4.88;1.83;;;14.40;99.90;;;;;;5034843;28;20167;-81
2022/06/14 00:49:21;;;;;;;7.20;1.67;;;14.20;99.90;;;;;;5034809;28;20278;-81
2022/06/14 00:52:27;;;;;;;7.25;1.73;;;14.30;99.90;;;;;;5035343;28;20168;-82
2022/06/14 00:54:58;;;;;;;3.38;1.58;;;14.10;99.90;;;;;;5030966;28;20175;-81
2022/06/14 00:57:28;;;;;;;1.88;1.10;;;14.10;99.90;;;;;;5035082;28;20259;-80
2022/06/14 01:00:08;;;;;;;2.78;1.10;;;14.30;99.90;;;;;;5035118;28;20278;-78
2022/06/14 01:02:43;;;;;;;4.45;1.20;;;14.40;99.90;;;;;;5035085;28;20564;-80
2022/06/14 01:05:17;;;;;;;3.40;1.50;;;14.50;99.90;;;;;;5034826;28;20294;-81
2022/06/14 01:07:47;;;;;;;2.67;1.38;;;14.40;99.90;;;;;;5034999;28;20160;-80
2022/06/14 01:10:33;;;;;;;10.73;1.38;;;14.10;99.90;;;;;;5034925;28;20204;-79
2022/06/14 01:13:03;;;;;;;11.18;1.30;;;14.10;99.90;;;;;;5034770;28;20179;-81
2022/06/14 01:15:32;;;;;;;3.20;1.30;;;14.10;99.90;;;;;;5035015;28;20238;-78
2022/06/14 01:18:13;;;;;;;6.20;1.67;;;14.10;99.90;;;;;;5034883;28;20160;-80
2022/06/14 01:20:40;;;;;;;6.25;1.30;;;14.10;99.90;;;;;;5034576;28;20204;-81
2022/06/14 01:23:09;;;;;;;2.42;1.27;;;14.20;99.90;;;;;;5034402;28;20214;-79
2022/06/14 01:25:48;;;;;;;9.30;1.52;;;14.20;99.90;;;;;;5034839;28;20203;-79
2022/06/14 01:28:16;;;;;;;5.93;1.40;;;14.00;99.90;;;;;;5034506;28;20198;-79
2022/06/14 01:30:49;;;;;;;8.30;1.63;;;13.80;99.90;;;;;;5034286;28;20192;-81
2022/06/14 01:33:23;;;;;;;3.65;1.45;;;13.80;99.90;;;;;;5033152;28;20179;-78
2022/06/14 01:35:55;;;;;;;5.00;1.65;;;13.90;99.90;;;;;;5034178;28;20167;-80
2022/06/14 01:38:21;;;;;;;7.22;1.23;;;13.90;99.90;;;;;;5034121;28;20172;-79
2022/06/14 01:41:04;;;;;;;4.68;1.83;;;14.00;99.90;;;;;;5033501;28;20203;-79
2022/06/14 01:43:33;;;;;;;4.85;1.63;;;14.10;99.90;;;;;;5034192;28;20616;-81
2022/06/14 01:46:11;;;;;;;4.07;1.60;;;14.30;99.90;;;;;;5032932;28;20179;-81
2022/06/14 01:48:49;;;;;;;3.13;1.42;;;14.40;99.90;;;;;;5034231;28;20175;-81
2022/06/14 01:51:51;;;;;;;6.25;1.50;;;14.30;99.90;;;;;;5034084;28;20160;-79
2022/06/14 01:54:31;;;;;;;8.93;1.85;;;14.30;99.90;;;;;;5034044;28;20628;-81
2022/06/14 01:57:13;;;;;;;6.13;1.65;;;14.40;99.90;;;;;;5034180;28;20215;-80
2022/06/14 01:59:45;;;;;;;9.18;1.75;;;14.30;99.90;;;;;;5034448;28;20563;-79
2022/06/14 02:02:16;;;;;;;4.25;1.80;;;14.20;99.90;;;;;;5034001;28;20205;-80
2022/06/14 02:04:56;;;;;;;3.20;1.80;;;14.30;99.90;;;;;;5033353;28;20200;-79
2022/06/14 02:07:47;;;;;;;4.30;1.70;;;14.10;99.90;;;;;;5033472;28;20168;-78
2022/06/14 02:10:28;;;;;;;2.10;1.25;;;14.00;99.90;;;;;;5033677;28;20305;-79
2022/06/14 02:13:06;;;;;;;4.68;1.45;;;14.00;99.90;;;;;;5033653;28;20183;-79
2022/06/14 02:15:39;;;;;;;8.90;1.60;;;13.80;99.90;;;;;;5033430;28;20168;-79
2022/06/14 02:18:26;;;;;;;5.88;1.60;;;13.70;99.90;;;;;;5033514;28;20167;-80
2022/06/14 02:20:56;;;;;;;4.28;1.30;;;13.70;99.90;;;;;;5033495;28;20199;-79
2022/06/14 02:23:25;;;;;;;6.47;2.05;;;13.90;99.90;;;;;;5033522;28;20164;-79
2022/06/14 02:25:57;;;;;;;7.07;1.73;;;14.00;99.90;;;;;;5033657;28;20643;-78
2022/06/14 02:28:46;;;;;;;5.45;1.70;;;14.10;99.90;;;;;;5033563;28;20637;-80
2022/06/14 02:31:18;;;;;;;6.70;1.70;;;14.20;99.90;;;;;;5033397;28;20171;-79
2022/06/14 02:33:52;;;;;;;5.85;1.67;;;14.30;99.90;;;;;;5033195;28;20168;-80
2022/06/14 02:36:28;;;;;;;3.55;1.55;;;14.10;99.90;;;;;;5033364;28;20178;-80
2022/06/14 02:39:03;;;;;;;6.28;1.20;;;14.10;99.90;;;;;;5031814;28;20655;-79
2022/06/14 02:41:52;;;;;;;8.25;1.85;;;14.20;99.90;;;;;;5033352;28;20189;-78
2022/06/14 02:44:30;;;;;;;7.35;1.73;;;14.10;99.90;;;;;;5032862;28;20209;-78
2022/06/14 02:47:13;;;;;;;7.97;1.70;;;14.00;99.90;;;;;;5033148;28;20175;-78
2022/06/14 02:49:51;;;;;;;2.53;1.45;;;13.80;99.90;;;;;;5033274;28;20192;-80
2022/06/14 02:52:32;;;;;;;1.95;1.10;;;13.60;99.90;;;;;;5032447;28;20171;-81
2022/06/14 02:55:04;;;;;;;3.78;1.52;;;13.40;99.90;;;;;;5033035;28;20160;-80
2022/06/14 02:57:29;;;;;;;6.95;1.80;;;13.20;99.90;;;;;;5032958;28;20176;-81
2022/06/14 03:00:07;;;;;;;1.90;1.35;;;13.40;99.90;;;;;;5033192;28;20191;-82
2022/06/14 03:02:39;;;;;;;6.00;1.40;;;13.60;99.90;;;;;;5033046;28;20540;-80
2022/06/14 03:05:13;;;;;;;4.05;1.48;;;13.60;99.90;;;;;;5033049;28;20262;-80
2022/06/14 03:07:50;;;;;;;6.22;1.50;;;13.50;99.90;;;;;;5033290;28;20623;-81
2022/06/14 03:10:16;;;;;;;5.53;1.38;;;13.50;99.90;;;;;;5032907;28;20767;-80
2022/06/14 03:13:07;;;;;;;7.97;1.65;;;13.50;99.90;;;;;;5032801;28;20247;-79
2022/06/14 03:15:49;;;;;;;4.47;1.75;;;13.50;99.90;;;;;;5032782;28;20164;-80
2022/06/14 03:18:55;;;;;;;12.48;2.03;;;13.80;99.90;;;;;;5032714;28;20172;-80
2022/06/14 03:21:50;;;;;;;9.80;1.90;;;13.80;99.90;;;;;;5032546;28;20170;-80
2022/06/14 03:24:49;;;;;;;2.40;1.52;;;13.70;99.90;;;;;;5032610;28;20203;-82
2022/06/14 03:27:30;;;;;;;13.18;2.15;;;13.80;99.90;;;;;;5032594;28;20172;-79
2022/06/14 03:30:07;;;;;;;2.67;1.60;;;13.60;99.90;;;;;;5031428;28;20544;-82
2022/06/14 03:32:44;;;;;;;7.78;2.28;;;13.50;99.90;;;;;;5032655;28;20171;-80
2022/06/14 03:35:22;;;;;;;10.18;1.77;;;13.50;99.90;;;;;;5033002;28;20172;-80
2022/06/14 03:37:48;;;;;;;2.88;1.63;;;13.60;99.90;;;;;;5032411;28;20176;-81
2022/06/14 03:40:18;;;;;;;3.22;1.48;;;13.60;99.90;;;;;;5032272;28;20287;-82
2022/06/14 03:42:43;;;;;;;19.77;1.73;;;13.40;99.90;;;;;;5032793;28;20534;-79
2022/06/14 03:45:12;;;;;;;4.32;1.60;;;13.40;99.90;;;;;;5033290;28;20290;-82
2022/06/14 03:47:38;;;;;;;7.80;1.67;;;13.40;99.90;;;;;;5032456;28;20172;-82
2022/06/14 03:50:11;;;;;;;5.82;2.10;;;13.30;99.90;;;;;;5032631;28;20233;-82
2022/06/14 03:52:46;;;;;;;5.43;1.77;;;13.30;99.90;;;;;;5033026;28;20159;-81
2022/06/14 03:55:49;;;;;;;4.35;1.95;;;13.40;99.90;;;;;;5032411;28;20171;-81
2022/06/14 03:58:38;;;;;;;4.88;2.10;;;13.40;99.90;;;;;;5032326;28;20628;-81
2022/06/14 04:01:21;;;;;;;3.40;2.40;;;13.50;99.90;;;;;;5030797;28;20575;-81
2022/06/14 04:04:18;;;;;;;2.10;1.50;;;14.00;99.90;;;;;;5034748;28;20294;-81
2022/06/14 04:06:44;;;;;;;7.45;2.00;;;14.50;99.90;;;;;;5036021;28;20171;-80
2022/06/14 04:09:33;;;;;;;2.53;1.70;;;15.10;99.90;;;;;;5036287;28;20246;-81
2022/06/14 04:12:06;;;;;;;10.73;1.85;;;15.80;99.90;;;;;;5036533;28;20180;-82
2022/06/14 04:14:31;;;;;;;11.15;2.20;;;16.30;99.90;;;;;;5036164;28;20213;-81
2022/06/14 04:17:33;;;;;;;3.08;1.63;;;16.70;99.90;;;;;;5036058;28;20199;-82
2022/06/14 04:20:12;;;;;;;6.97;1.95;;;16.90;99.90;;;;;;5035865;28;20194;-80
2022/06/14 04:23:09;;;;;;;5.55;1.55;;;17.00;99.90;;;;;;5036200;28;20194;-81
2022/06/14 04:25:48;;;;;;;4.20;1.70;;;17.00;99.90;;;;;;5035018;28;20634;-82
2022/06/14 04:28:31;;;;;;;6.40;1.60;;;17.00;99.90;;;;;;5035455;28;20178;-81
2022/06/14 04:31:09;;;;;;;11.02;2.38;;;16.40;99.90;;;;;;5035265;28;20688;-78
2022/06/14 04:33:40;;;;;;;9.68;2.10;;;15.80;99.90;;;;;;5035473;28;20660;-79
2022/06/14 04:36:07;;;;;;;3.70;1.98;;;15.60;99.90;;;;;;5034104;28;20261;-79
2022/06/14 04:38:46;;;;;;;22.98;2.88;;;15.70;99.90;;;;;;5035503;28;20659;-79
2022/06/14 04:41:18;;;;;;;7.47;1.92;;;15.60;99.90;;;;;;5035470;28;20257;-80
2022/06/14 04:44:09;;;;;;;7.13;1.90;;;15.50;99.90;;;;;;5035120;28;20668;-80
2022/06/14 04:46:42;;;;;;;2.63;1.75;;;15.20;99.90;;;;;;5034756;28;20218;-79
2022/06/14 04:49:15;;;;;;;10.90;1.85;;;14.90;99.90;;;;;;5035214;28;20175;-79
2022/06/14 04:51:51;;;;;;;5.15;1.85;;;14.90;99.90;;;;;;5035086;28;20220;-81
2022/06/14 04:54:20;;;;;;;10.60;1.75;;;14.80;99.90;;;;;;5035352;28;20194;-81
2022/06/14 04:57:06;;;;;;;7.10;1.98;;;14.80;99.90;;;;;;5035390;28;20266;-82
2022/06/14 04:59:51;;;;;;;5.47;1.70;;;14.70;99.90;;;;;;5035008;28;20188;-82
2022/06/14 05:02:41;;;;;;;10.75;1.92;;;14.60;99.90;;;;;;5034850;28;20167;-82
2022/06/14 05:05:21;;;;;;;9.70;2.50;;;14.60;99.90;;;;;;5034752;28;20656;-81
2022/06/14 05:07:51;;;;;;;17.40;2.53;;;14.70;99.90;;;;;;5034605;28;20194;-82
2022/06/14 05:10:22;;;;;;;11.60;2.30;;;14.80;99.90;;;;;;5034288;28;20188;-82
2022/06/14 05:12:56;;;;;;;13.68;2.53;;;14.80;99.90;;;;;;5034346;28;20180;-80
2022/06/14 05:15:29;;;;;;;10.43;2.78;;;14.80;99.90;;;;;;5033652;28;20191;-82
2022/06/14 05:18:00;;;;;;;9.07;2.38;;;14.80;99.90;;;;;;5034241;28;20168;-80
2022/06/14 05:20:41;;;;;;;18.17;2.55;;;14.90;99.90;;;;;;5034290;28;20709;-79
2022/06/14 05:23:11;;;;;;;19.35;2.50;;;15.10;99.90;;;;;;5034539;28;20168;-80
2022/06/14 05:25:47;;;;;;;13.50;2.60;;;15.20;99.90;;;;;;5034553;28;20231;-80
2022/06/14 05:28:17;;;;;;;17.50;3.05;;;15.30;99.90;;;;;;5033009;28;20521;-81
2022/06/14 05:31:18;;;;;;;15.60;2.63;;;15.30;99.90;;;;;;5033521;28;20344;-82
2022/06/14 05:33:59;;;;;;;20.08;2.97;;;15.20;99.90;;;;;;5001010;28;20187;-81
2022/06/14 05:36:42;;;;;;;8.07;2.95;;;15.40;99.90;;;;;;5034353;28;20242;-81
2022/06/14 05:39:34;;;;;;;10.30;2.75;;;15.50;99.90;;;;;;5034196;28;20203;-81
2022/06/14 05:42:13;;;;;;;5.53;2.55;;;15.50;99.90;;;;;;5027423;28;20751;-80
2022/06/14 05:44:44;;;;;;;13.48;3.55;;;15.50;99.90;;;;;;5033730;28;20207;-81
2022/06/14 05:47:15;;;;;;;21.77;3.80;;;15.50;99.90;;;;;;5033911;28;20160;-83
2022/06/14 05:49:46;;;;;;;3.60;1.83;;;15.80;99.90;;;;;;5033718;28;20184;-81
2022/06/14 05:52:21;;;;;;;8.75;2.15;;;15.70;99.90;;;;;;5032573;28;20168;-79
2022/06/14 05:55:15;;;;;;;8.57;1.90;;;15.80;99.90;;;;;;5032373;28;20620;-79
2022/06/14 05:57:57;;;;;;;7.32;2.03;;;15.80;99.90;;;;;;5034313;28;20156;-80
2022/06/14 06:00:46;;;;;;;9.77;2.70;;;15.70;99.90;;;;;;5033730;28;20179;-78
2022/06/14 06:03:44;;;;;;;4.22;2.10;;;15.80;99.90;;;;;;5033368;28;20628;-79
2022/06/14 06:06:20;;;;;;;8.75;2.30;;;15.90;99.90;;;;;;5033154;28;20190;-79
2022/06/14 06:08:58;;;;;;;4.32;1.63;;;16.00;99.90;;;;;;5033448;28;20171;-81
2022/06/14 06:11:36;;;;;;;8.80;1.67;;;16.10;99.90;;;;;;5033800;28;20171;-79
2022/06/14 06:14:22;;;;;;;23.58;2.33;;;16.20;99.90;;;;;;5033777;28;20159;-79
2022/06/14 06:17:04;;;;;;;5.45;1.60;;;16.30;99.90;;;;;;5038629;28;20160;-78
2022/06/14 06:19:48;;;;;;;4.13;1.50;;;16.40;99.90;;;;;;5040910;28;20203;-79
2022/06/14 06:22:17;;;;;;;7.53;1.50;;;16.40;99.90;;;;;;5039340;28;20605;-80
2022/06/14 06:24:51;;;;;;;15.07;1.80;;;16.60;99.90;;;;;;5032840;28;20714;-83
2022/06/14 06:27:21;;;;;;;18.30;1.73;;;16.70;99.90;;;;;;5032404;28;20242;-83
2022/06/14 06:29:54;;;;;;;12.13;1.30;;;16.60;99.90;;;;;;5031885;28;20196;-85
2022/06/14 06:32:22;;;;;;;5.25;1.50;;;16.60;99.90;;;;;;5032585;28;20243;-80
2022/06/14 06:34:49;;;;;;;7.30;1.60;;;16.60;99.90;;;;;;5031662;28;20187;-80
2022/06/14 06:37:14;;;;;;;7.28;1.63;;;16.60;99.90;;;;;;5033080;28;20172;-80
2022/06/14 06:39:50;;;;;;;4.78;1.95;;;16.60;99.90;;;;;;5032741;28;20599;-79
2022/06/14 06:42:50;;;;;;;11.38;1.88;;;16.80;99.90;;;;;;5031584;28;20195;-80
2022/06/14 06:45:30;;;;;;;3.92;1.50;;;16.80;99.90;;;;;;5032459;28;20659;-80
2022/06/14 06:48:24;;;;;;;7.75;1.92;;;16.90;99.90;;;;;;5032052;28;20175;-80
2022/06/14 06:50:53;;;;;;;9.20;2.08;;;16.80;99.90;;;;;;5032200;28;20205;-81
2022/06/14 06:53:21;;;;;;;14.18;2.17;;;17.30;99.90;;;;;;5032600;28;20247;-81
2022/06/14 06:56:14;;;;;;;3.35;1.35;;;18.20;99.90;;;;;;5032736;28;20171;-83
2022/06/14 06:59:01;;;;;;;5.20;1.70;;;18.60;99.90;;;;;;5033697;28;20234;-84
2022/06/14 07:01:31;;;;;;;3.10;1.40;;;20.10;99.90;;;;;;5031868;28;20168;-84
2022/06/14 07:05:03;;;;;;;6.45;1.65;;;21.10;99.90;;;;;;5032865;28;20214;-83
2022/06/14 07:07:20;;;;;;;7.03;1.42;;;21.70;99.90;;;;;;5032521;28;20184;-81
2022/06/14 07:10:00;;;;;;;2.35;1.15;;;22.60;99.90;;;;;;5031029;28;20202;-81
2022/06/14 07:12:50;;;;;;;8.82;1.30;;;22.30;99.90;;;;;;5031204;28;20592;-81
2022/06/14 07:15:18;;;;;;;4.43;1.30;;;21.80;99.90;;;;;;5031589;28;20200;-82
2022/06/14 07:17:55;;;;;;;3.60;1.23;;;22.50;99.90;;;;;;5030971;28;20163;-81
2022/06/14 07:20:33;;;;;;;4.95;1.20;;;22.70;99.90;;;;;;5029176;28;21155;-85
2022/06/14 07:23:35;;;;;;;15.05;1.48;;;22.70;99.90;;;;;;5027940;28;20179;-86
2022/06/14 07:26:16;;;;;;;4.72;1.48;;;22.80;99.90;;;;;;5029240;28;20230;-86
2022/06/14 07:29:04;;;;;;;7.13;1.23;;;24.10;98.50;;;;;;5033279;28;20160;-85
2022/06/14 07:31:44;;;;;;;5.30;1.20;;;23.80;98.40;;;;;;5032805;28;20172;-87
2022/06/14 07:34:11;;;;;;;8.00;1.10;;;23.50;98.40;;;;;;5033023;28;20179;-87
2022/06/14 07:36:40;;;;;;;3.42;1.38;;;23.20;98.70;;;;;;5032945;28;20164;-82
2022/06/14 07:39:32;;;;;;;4.50;1.35;;;23.50;98.70;;;;;;5032675;28;20346;-81
2022/06/14 07:42:17;;;;;;;13.60;1.23;;;23.70;97.90;;;;;;5032134;28;20203;-84
2022/06/14 07:45:00;;;;;;;6.60;1.30;;;23.70;98.20;;;;;;5031794;28;20215;-81
2022/06/14 07:47:30;;;;;;;6.28;1.20;;;23.60;97.60;;;;;;5030562;28;20172;-85
2022/06/14 07:50:10;;;;;;;2.83;1.00;;;23.30;97.90;;;;;;5031381;28;20218;-81
2022/06/14 07:52:47;;;;;;;3.53;1.15;;;22.40;98.90;;;;;;5031818;28;20176;-83
2022/06/14 07:55:34;;;;;;;2.83;1.20;;;22.30;99.70;;;;;;5032003;28;20163;-83
2022/06/14 07:58:05;;;;;;;2.75;1.20;;;22.20;99.40;;;;;;5030882;28;20544;-84
2022/06/14 08:03:32;;;;;;;11.82;1.35;;;21.00;99.90;;;;;;5033395;28;20222;-85
2022/06/14 08:06:01;;;;;;;3.45;1.10;;;20.50;99.90;;;;;;5031910;28;20168;-86
2022/06/14 08:08:32;;;;;;;4.07;1.00;;;20.50;99.90;;;;;;5031576;28;20190;-88
2022/06/14 08:11:05;;;;;;;4.43;1.55;;;20.30;99.90;;;;;;5033187;28;20188;-89
2022/06/14 08:13:37;;;;;;;3.85;1.10;;;20.10;99.90;;;;;;5037790;28;20168;-95
2022/06/14 08:16:05;;;;;;;3.40;1.23;;;19.70;99.90;;;;;;5036411;28;20179;-86
2022/06/14 08:18:54;;;;;;;5.13;1.50;;;19.70;99.90;;;;;;5031800;28;20616;-87
2022/06/14 08:21:40;;;;;;;12.60;2.20;;;19.40;99.90;;;;;;5032222;28;20621;-87
2022/06/14 08:24:21;;;;;;;2.35;1.20;;;19.50;99.90;;;;;;5031865;28;20196;-86
2022/06/14 08:27:01;;;;;;;3.88;1.45;;;19.60;99.90;;;;;;5031827;28;20575;-85
2022/06/14 08:30:11;;;;;;;2.03;1.20;;;19.50;99.90;;;;;;5031546;28;20191;-86
2022/06/14 08:32:46;;;;;;;9.93;1.30;;;19.40;99.90;;;;;;4972288;28;20178;-91
2022/06/14 08:35:26;;;;;;;6.97;1.30;;;19.40;99.90;;;;;;5020996;28;20191;-88
2022/06/14 08:38:08;;;;;;;5.75;1.20;;;19.50;99.90;;;;;;5032654;28;20167;-88
2022/06/14 08:41:01;;;;;;;6.75;0.98;;;19.40;99.90;;;;;;5032181;28;20298;-88
2022/06/14 08:43:35;;;;;;;19.13;2.72;;;19.50;99.90;;;;;;5032602;28;20624;-88
2022/06/14 08:46:01;;;;;;;3.15;1.10;;;19.70;99.90;;;;;;5033696;28;20183;-89
2022/06/14 08:48:40;;;;;;;3.40;1.23;;;19.60;99.90;;;;;;5033118;28;20164;-89
2022/06/14 08:51:27;;;;;;;4.03;1.20;;;19.60;99.90;;;;;;5035956;28;20191;-89
2022/06/14 08:54:30;;;;;;;3.95;0.90;;;19.50;99.90;;;;;;5036361;28;20579;-88
2022/06/14 08:57:27;;;;;;;7.30;1.30;;;19.60;99.90;;;;;;5034062;28;20265;-85
2022/06/14 09:00:04;;;;;;;3.70;1.38;;;19.40;99.90;;;;;;5034621;28;20199;-87
2022/06/14 09:02:32;;;;;;;6.93;1.50;;;19.80;99.90;;;;;;5034974;28;20548;-90
2022/06/14 09:05:07;;;;;;;7.28;1.42;;;19.90;99.90;;;;;;5035596;28;20614;-87
2022/06/14 09:08:01;;;;;;;5.03;1.75;;;19.90;99.90;;;;;;5035308;28;20171;-88
2022/06/14 09:10:48;;;;;;;3.28;1.45;;;20.00;99.90;;;;;;5035394;28;20224;-86
2022/06/14 09:13:51;;;;;;;1.85;1.10;;;20.30;99.90;;;;;;5036628;28;20172;-90
2022/06/14 09:16:31;;;;;;;3.90;1.35;;;20.40;99.90;;;;;;5034359;28;20192;-84
2022/06/14 09:19:09;;;;;;;6.05;1.13;;;20.40;99.90;;;;;;5033896;28;20159;-84
2022/06/14 09:21:51;;;;;;;10.15;1.50;;;20.30;99.90;;;;;;5034909;28;20182;-84
2022/06/14 09:24:42;;;;;;;6.20;0.82;;;20.30;99.90;;;;;;5033834;28;20239;-84
2022/06/14 09:27:20;;;;;;;3.65;1.25;;;20.40;99.90;;;;;;5024041;28;20187;-84
2022/06/14 09:29:51;;;;;;;8.90;1.25;;;20.40;99.90;;;;;;5033279;28;20686;-85
2022/06/14 09:33:09;;;;;;;16.98;1.92;;;20.30;99.90;;;;;;5033412;28;20171;-85
2022/06/14 09:35:32;;;;;;;7.45;0.98;;;20.40;99.90;;;;;;5035019;28;20544;-85
2022/06/14 09:38:13;;;;;;;8.48;1.17;;;20.10;99.90;;;;;;5033819;28;20179;-86
2022/06/14 09:40:45;;;;;;;2.00;1.02;;;19.90;99.90;;;;;;5035582;28;20199;-87
2022/06/14 09:46:20;;;;;;;4.90;1.23;;;20.00;99.90;;;;;;5035104;28;20215;-86
2022/06/14 09:48:57;;;;;;;3.35;1.20;;;20.40;99.90;;;;;;5036815;28;20179;-87
2022/06/14 09:51:53;;;;;;;9.73;1.40;;;20.50;99.90;;;;;;5058670;28;20173;-88
2022/06/14 09:54:31;;;;;;;7.63;1.02;;;20.50;99.90;;;;;;5038952;28;20171;-86
2022/06/14 09:57:17;;;;;;;6.88;1.20;;;20.40;99.90;;;;;;5060957;28;20175;-86
2022/06/14 09:59:52;;;;;;;3.17;1.10;;;20.60;99.90;;;;;;5056803;28;20190;-86
2022/06/14 10:02:20;;;;;;;1.73;1.00;;;20.40;99.90;;;;;;5059225;28;20167;-87
2022/06/14 10:05:05;;;;;;;3.53;1.10;;;20.40;99.90;;;;;;5038264;28;20206;-87
2022/06/14 10:07:53;;;;;;;3.05;1.40;;;20.50;99.90;;;;;;5038090;28;20635;-86
2022/06/14 10:10:41;;;;;;;11.95;1.40;;;20.60;99.90;;;;;;5055729;28;20187;-87
2022/06/14 10:13:29;;;;;;;5.38;1.17;;;20.40;99.90;;;;;;5037260;28;20175;-84
2022/06/14 10:16:07;;;;;;;3.40;1.40;;;20.20;99.90;;;;;;5042146;28;20175;-87
2022/06/14 10:19:01;;;;;;;9.02;1.33;;;20.30;99.90;;;;;;5037326;28;20175;-83
2022/06/14 10:22:04;;;;;;;2.50;1.02;;;20.40;99.90;;;;;;5037167;28;20527;-86
2022/06/14 10:24:40;;;;;;;10.25;1.40;;;20.60;99.90;;;;;;5042601;28;20214;-86
2022/06/14 10:30:23;;;;;;;3.30;1.10;;;20.70;99.90;;;;;;5054562;28;20274;-87
2022/06/14 10:33:26;;;;;;;80.22;7.60;;;20.40;99.90;;;;;;5036574;28;20281;-88
2022/06/14 10:36:03;;;;;;;4.15;1.45;;;20.70;99.90;;;;;;5036718;28;20243;-87
2022/06/14 10:38:57;;;;;;;1.70;0.80;;;20.90;99.90;;;;;;5036620;28;20171;-86
2022/06/14 10:41:24;;;;;;;9.07;1.48;;;20.90;99.90;;;;;;5055359;28;20564;-87
2022/06/14 10:43:55;;;;;;;7.25;1.25;;;21.00;99.90;;;;;;5054364;28;20187;-85
2022/06/14 10:46:27;;;;;;;3.40;1.42;;;21.10;99.90;;;;;;5053933;28;20654;-87
2022/06/14 10:49:11;;;;;;;5.82;1.63;;;21.20;99.90;;;;;;5053831;28;20160;-85
2022/06/14 10:52:01;;;;;;;21.92;2.65;;;21.40;99.90;;;;;;5036037;28;20514;-86
2022/06/14 10:54:59;;;;;;;5.53;1.17;;;21.60;99.90;;;;;;5036374;28;20189;-86
2022/06/14 10:57:37;;;;;;;3.58;1.15;;;21.60;99.90;;;;;;5035647;28;20187;-86
2022/06/14 11:00:30;;;;;;;2.80;1.25;;;21.40;99.90;;;;;;5036091;28;20186;-88
2022/06/14 11:03:18;;;;;;;7.65;1.95;;;21.30;99.90;;;;;;5053928;28;20214;-88
2022/06/14 11:06:01;;;;;;;6.15;1.60;;;21.50;99.90;;;;;;5053552;28;20210;-86
2022/06/14 11:08:51;;;;;;;5.57;1.30;;;21.50;99.90;;;;;;5036694;28;20182;-86
2022/06/14 11:11:25;;;;;;;16.80;2.05;;;21.30;99.90;;;;;;5040658;28;20182;-87
2022/06/14 11:13:54;;;;;;;56.80;6.00;;;21.10;99.90;;;;;;5074897;28;20166;-82
2022/06/14 11:16:56;;;;;;;9.13;1.42;;;21.10;99.90;;;;;;5049147;28;20230;-85
2022/06/14 11:19:44;;;;;;;9.68;1.27;;;21.10;99.90;;;;;;5035654;28;20195;-85
2022/06/14 11:22:13;;;;;;;19.30;1.90;;;21.10;99.90;;;;;;5053773;28;20163;-86
2022/06/14 11:24:55;;;;;;;17.63;1.80;;;21.30;99.90;;;;;;5053576;28;20329;-86
2022/06/14 11:27:40;;;;;;;2.65;1.23;;;21.40;99.90;;;;;;5053252;28;20167;-87
2022/06/14 11:30:15;;;;;;;11.10;1.77;;;21.60;99.90;;;;;;5053553;28;20190;-87
2022/06/14 11:32:59;;;;;;;10.80;1.45;;;21.40;99.90;;;;;;5055563;28;20170;-87
2022/06/14 11:35:46;;;;;;;4.57;1.35;;;21.50;99.90;;;;;;5035778;28;20171;-86
2022/06/14 11:38:32;;;;;;;14.20;1.60;;;21.70;99.90;;;;;;5035791;28;20171;-86
2022/06/14 11:41:02;;;;;;;21.80;2.20;;;21.60;99.90;;;;;;5054027;28;20194;-85
2022/06/14 11:43:48;;;;;;;3.03;1.83;;;21.50;99.90;;;;;;5036279;28;20234;-86
2022/06/14 11:46:40;;;;;;;2.45;1.40;;;21.60;99.90;;;;;;5053806;28;20202;-88
2022/06/14 11:49:21;;;;;;;6.00;1.23;;;21.80;99.90;;;;;;5054005;28;20175;-96
2022/06/14 11:52:02;;;;;;;4.40;1.15;;;21.90;99.90;;;;;;5058594;28;20175;-93
2022/06/14 11:54:52;;;;;;;10.25;1.38;;;21.90;99.90;;;;;;5040350;28;20194;-84
2022/06/14 11:57:52;;;;;;;5.65;1.45;;;21.90;99.90;;;;;;5038181;28;20201;-89
2022/06/14 12:00:35;;;;;;;4.35;1.30;;;22.00;99.90;;;;;;5038252;28;20213;-83
2022/06/14 12:03:41;;;;;;;2.42;1.13;;;22.10;99.90;;;;;;5053152;28;20266;-89
2022/06/14 12:06:28;;;;;;;5.57;1.17;;;22.00;99.90;;;;;;5034965;28;20187;-87
2022/06/14 12:09:32;;;;;;;6.20;1.15;;;21.90;99.90;;;;;;5052969;28;20254;-84
2022/06/14 12:12:15;;;;;;;2.63;1.23;;;22.00;99.90;;;;;;5035477;28;20198;-91
2022/06/14 12:15:01;;;;;;;8.30;1.48;;;22.10;99.80;;;;;;5036045;28;20639;-88
2022/06/14 12:17:42;;;;;;;4.93;1.33;;;22.00;99.40;;;;;;5035060;28;20178;-84
2022/06/14 12:20:10;;;;;;;9.13;1.70;;;22.40;99.90;;;;;;5034632;28;20191;-86
2022/06/14 12:22:36;;;;;;;13.65;1.40;;;22.60;99.90;;;;;;5034600;28;20679;-83
2022/06/14 12:28:24;;;;;;;3.50;1.10;;;22.60;99.90;;;;;;5056472;28;20178;-88
2022/06/14 12:30:55;;;;;;;3.95;1.02;;;22.40;99.90;;;;;;5038138;28;20237;-92
2022/06/14 12:33:50;;;;;;;7.75;1.30;;;22.60;99.90;;;;;;5058752;28;20194;-83
2022/06/14 12:36:31;;;;;;;9.05;1.45;;;22.60;99.90;;;;;;5041580;28;20171;-87
2022/06/14 12:39:04;;;;;;;8.95;1.73;;;22.60;99.90;;;;;;5066047;28;20169;-85
2022/06/14 12:41:39;;;;;;;9.82;1.48;;;22.50;99.90;;;;;;5053850;28;20178;-84
2022/06/14 12:44:32;;;;;;;2.58;1.20;;;22.70;99.90;;;;;;5043442;28;20285;-85
2022/06/14 12:47:03;;;;;;;2.78;1.45;;;22.60;99.90;;;;;;5045935;28;20186;-88
2022/06/14 12:49:35;;;;;;;14.05;1.40;;;22.30;99.90;;;;;;5043228;28;20182;-89
2022/06/14 12:52:08;;;;;;;4.10;1.10;;;22.40;99.90;;;;;;5060854;28;20169;-86
2022/06/14 12:54:59;;;;;;;4.32;1.17;;;22.40;99.70;;;;;;5059632;28;20600;-86
2022/06/14 12:57:50;;;;;;;9.63;1.17;;;22.60;99.70;;;;;;5057636;28;20171;-85
2022/06/14 13:00:39;;;;;;;4.43;1.23;;;22.60;99.70;;;;;;5056541;28;20183;-87
2022/06/14 13:03:16;;;;;;;4.05;1.25;;;22.60;99.90;;;;;;5056896;28;20175;-88
2022/06/14 13:05:52;;;;;;;4.65;1.42;;;22.60;99.90;;;;;;5066944;28;20210;-87
2022/06/14 13:08:45;;;;;;;6.35;1.23;;;22.60;99.70;;;;;;5058214;28;20190;-86
2022/06/14 13:11:29;;;;;;;6.70;1.05;;;22.70;99.40;;;;;;5039943;28;20191;-88
2022/06/14 13:14:08;;;;;;;4.65;0.98;;;22.60;99.30;;;;;;5057626;28;20226;-78
2022/06/14 13:16:54;;;;;;;9.95;1.63;;;22.70;99.00;;;;;;5057246;28;20647;-86
2022/06/14 13:19:34;;;;;;;12.30;1.30;;;22.60;98.90;;;;;;5056509;28;20741;-85
2022/06/14 13:22:40;;;;;;;2.53;1.38;;;22.60;99.80;;;;;;5056326;28;20175;-87
2022/06/14 13:25:21;;;;;;;4.75;1.45;;;22.20;99.60;;;;;;5056100;28;20285;-87
2022/06/14 13:28:23;;;;;;;2.53;1.55;;;22.40;99.70;;;;;;5056675;28;20171;-88
2022/06/14 13:31:24;;;;;;;2.78;1.10;;;22.60;99.20;;;;;;4973230;28;20195;-86
2022/06/14 13:34:18;;;;;;;7.00;1.35;;;22.50;99.40;;;;;;5055805;28;20234;-82
2022/06/14 13:37:05;;;;;;;2.35;1.20;;;22.70;98.70;;;;;;5002413;28;20258;-83
2022/06/14 13:39:53;;;;;;;3.92;1.10;;;22.80;98.50;;;;;;5055467;28;20191;-87
2022/06/14 13:42:30;;;;;;;2.50;1.17;;;23.00;98.50;;;;;;5055926;28;20714;-81
2022/06/14 13:45:10;;;;;;;4.65;1.10;;;23.00;99.30;;;;;;5055666;28;20217;-89
2022/06/14 13:48:07;;;;;;;2.38;1.08;;;23.10;98.60;;;;;;5044032;28;20226;-89
2022/06/14 13:50:44;;;;;;;4.85;1.10;;;23.10;99.00;;;;;;5068537;28;20175;-86
2022/06/14 13:53:44;;;;;;;8.48;0.93;;;22.90;98.70;;;;;;5055871;28;20177;-87
2022/06/14 13:56:18;;;;;;;6.82;1.70;;;23.00;98.60;;;;;;5062106;28;20194;-81
2022/06/14 13:59:17;;;;;;;4.75;1.30;;;23.10;99.70;;;;;;5053145;28;20163;-87
2022/06/14 14:02:11;;;;;;;2.65;1.30;;;23.30;99.00;;;;;;5066531;28;20631;-88
2022/06/14 14:04:53;;;;;;;4.35;1.40;;;23.10;99.00;;;;;;5046840;28;20188;-87